sensor_id;sensor_type;location;lat;lon;timestamp;pressure;altitude;pressure_sealevel;temperature;humidity
12969;BME280;6549;53.128;8.182;2023-04-03T00:00:32;103027.25;;;1.14;100.00
12969;BME280;6549;53.128;8.182;2023-04-03T00:03:33;103031.34;;;1.27;100.00
12969;BME280;6549;53.128;8.182;2023-04-03T00:06:33;103033.22;;;1.21;100.00
12969;BME280;6549;53.128;8.182;2023-04-03T00:09:35;103046.78;;;1.31;100.00
12969;BME280;6549;53.128;8.182;2023-04-03T00:12:35;103040.47;;;1.11;100.00
12969;BME280;6549;53.128;8.182;2023-04-03T00:15:36;103048.31;;;1.07;100.00
12969;BME280;6549;53.128;8.182;2023-04-03T00:18:37;103042.38;;;1.05;100.00
12969;BME280;6549;53.128;8.182;2023-04-03T00:21:38;103049.34;;;0.91;100.00
12969;BME280;6549;53.128;8.182;2023-04-03T00:24:39;103050.97;;;0.87;100.00
12969;BME280;6549;53.128;8.182;2023-04-03T00:27:40;103047.13;;;0.78;100.00
12969;BME280;6549;53.128;8.182;2023-04-03T00:30:40;103053.47;;;1.04;100.00
12969;BME280;6549;53.128;8.182;2023-04-03T00:33:41;103045.06;;;1.00;100.00
12969;BME280;6549;53.128;8.182;2023-04-03T00:36:41;103050.72;;;0.88;100.00
12969;BME280;6549;53.128;8.182;2023-04-03T00:39:41;103046.00;;;0.69;100.00
12969;BME280;6549;53.128;8.182;2023-04-03T00:42:43;103044.97;;;0.75;100.00
12969;BME280;6549;53.128;8.182;2023-04-03T00:45:48;103056.00;;;0.68;100.00
12969;BME280;6549;53.128;8.182;2023-04-03T00:48:49;103046.22;;;0.57;100.00
12969;BME280;6549;53.128;8.182;2023-04-03T00:51:50;103050.03;;;0.61;100.00
12969;BME280;6549;53.128;8.182;2023-04-03T00:54:52;103046.19;;;0.52;100.00
12969;BME280;6549;53.128;8.182;2023-04-03T00:57:54;103039.38;;;0.44;100.00
12969;BME280;6549;53.128;8.182;2023-04-03T01:00:57;103032.31;;;0.38;100.00
12969;BME280;6549;53.128;8.182;2023-04-03T01:03:59;103024.16;;;0.33;100.00
12969;BME280;6549;53.128;8.182;2023-04-03T01:07:09;103027.91;;;0.27;100.00
12969;BME280;6549;53.128;8.182;2023-04-03T01:10:12;103027.88;;;0.22;100.00
12969;BME280;6549;53.128;8.182;2023-04-03T01:13:24;103028.94;;;0.16;100.00
12969;BME280;6549;53.128;8.182;2023-04-03T01:16:25;103030.78;;;0.11;100.00
12969;BME280;6549;53.128;8.182;2023-04-03T01:19:25;103034.88;;;0.13;100.00
12969;BME280;6549;53.128;8.182;2023-04-03T01:22:30;103047.91;;;0.21;100.00
12969;BME280;6549;53.128;8.182;2023-04-03T01:25:34;103054.28;;;0.10;100.00
12969;BME280;6549;53.128;8.182;2023-04-03T01:28:36;103042.66;;;0.10;100.00
12969;BME280;6549;53.128;8.182;2023-04-03T01:31:51;103053.44;;;0.05;100.00
12969;BME280;6549;53.128;8.182;2023-04-03T01:34:51;103054.38;;;0.20;100.00
12969;BME280;6549;53.128;8.182;2023-04-03T01:37:52;103050.53;;;0.11;100.00
12969;BME280;6549;53.128;8.182;2023-04-03T01:40:52;103056.44;;;0.08;100.00
12969;BME280;6549;53.128;8.182;2023-04-03T01:43:52;103053.25;;;0.16;100.00
12969;BME280;6549;53.128;8.182;2023-04-03T01:46:53;103056.28;;;0.25;100.00
12969;BME280;6549;53.128;8.182;2023-04-03T01:49:53;103059.69;;;0.10;100.00
12969;BME280;6549;53.128;8.182;2023-04-03T01:52:53;103061.59;;;0.10;100.00
12969;BME280;6549;53.128;8.182;2023-04-03T01:55:54;103069.16;;;0.08;100.00
12969;BME280;6549;53.128;8.182;2023-04-03T01:58:54;103063.66;;;-0.03;100.00
12969;BME280;6549;53.128;8.182;2023-04-03T02:01:55;103072.06;;;0.01;100.00
12969;BME280;6549;53.128;8.182;2023-04-03T02:04:55;103078.50;;;-0.05;100.00
12969;BME280;6549;53.128;8.182;2023-04-03T02:07:55;103076.34;;;-0.03;100.00
12969;BME280;6549;53.128;8.182;2023-04-03T02:10:56;103080.69;;;-0.02;100.00
12969;BME280;6549;53.128;8.182;2023-04-03T02:13:56;103078.28;;;0.02;100.00
12969;BME280;6549;53.128;8.182;2023-04-03T02:16:57;103083.16;;;0.05;100.00
12969;BME280;6549;53.128;8.182;2023-04-03T02:19:57;103078.06;;;0.08;100.00
12969;BME280;6549;53.128;8.182;2023-04-03T02:22:58;103078.13;;;0.13;100.00
12969;BME280;6549;53.128;8.182;2023-04-03T02:26:07;103080.38;;;0.26;100.00
12969;BME280;6549;53.128;8.182;2023-04-03T02:29:08;103075.03;;;0.36;100.00
12969;BME280;6549;53.128;8.182;2023-04-03T02:32:08;103076.84;;;0.26;100.00
12969;BME280;6549;53.128;8.182;2023-04-03T02:35:09;103083.59;;;0.23;100.00
12969;BME280;6549;53.128;8.182;2023-04-03T02:38:09;103086.00;;;0.20;100.00
12969;BME280;6549;53.128;8.182;2023-04-03T02:41:11;103080.50;;;0.10;100.00
12969;BME280;6549;53.128;8.182;2023-04-03T02:44:12;103091.53;;;0.03;100.00
12969;BME280;6549;53.128;8.182;2023-04-03T02:47:12;103093.97;;;-0.01;100.00
12969;BME280;6549;53.128;8.182;2023-04-03T02:50:12;103087.16;;;-0.03;100.00
12969;BME280;6549;53.128;8.182;2023-04-03T02:53:13;103091.41;;;-0.12;100.00
12969;BME280;6549;53.128;8.182;2023-04-03T02:56:13;103091.97;;;-0.10;100.00
12969;BME280;6549;53.128;8.182;2023-04-03T02:59:14;103098.16;;;-0.15;100.00
12969;BME280;6549;53.128;8.182;2023-04-03T03:02:14;103102.69;;;-0.20;100.00
12969;BME280;6549;53.128;8.182;2023-04-03T03:05:15;103093.47;;;-0.24;100.00
12969;BME280;6549;53.128;8.182;2023-04-03T03:08:15;103096.75;;;-0.17;100.00
12969;BME280;6549;53.128;8.182;2023-04-03T03:11:16;103109.09;;;-0.26;100.00
12969;BME280;6549;53.128;8.182;2023-04-03T03:14:16;103097.16;;;-0.30;100.00
12969;BME280;6549;53.128;8.182;2023-04-03T03:17:17;103096.97;;;-0.24;100.00
12969;BME280;6549;53.128;8.182;2023-04-03T03:20:17;103101.25;;;-0.28;100.00
12969;BME280;6549;53.128;8.182;2023-04-03T03:23:17;103096.69;;;-0.27;100.00
12969;BME280;6549;53.128;8.182;2023-04-03T03:26:18;103101.75;;;-0.31;100.00
12969;BME280;6549;53.128;8.182;2023-04-03T03:29:18;103101.63;;;-0.19;100.00
12969;BME280;6549;53.128;8.182;2023-04-03T03:32:18;103092.53;;;-0.35;100.00
12969;BME280;6549;53.128;8.182;2023-04-03T03:35:19;103096.22;;;-0.46;100.00
12969;BME280;6549;53.128;8.182;2023-04-03T03:38:19;103099.44;;;-0.49;100.00
12969;BME280;6549;53.128;8.182;2023-04-03T03:41:20;103097.28;;;-0.47;100.00
12969;BME280;6549;53.128;8.182;2023-04-03T03:44:21;103101.84;;;-0.48;100.00
12969;BME280;6549;53.128;8.182;2023-04-03T03:47:21;103097.53;;;-0.49;100.00
12969;BME280;6549;53.128;8.182;2023-04-03T03:50:21;103097.50;;;-0.54;100.00
12969;BME280;6549;53.128;8.182;2023-04-03T03:53:22;103094.56;;;-0.47;100.00
12969;BME280;6549;53.128;8.182;2023-04-03T03:56:22;103104.50;;;-0.53;100.00
12969;BME280;6549;53.128;8.182;2023-04-03T03:59:22;103106.66;;;-0.55;100.00
12969;BME280;6549;53.128;8.182;2023-04-03T04:02:23;103100.19;;;-0.54;100.00
12969;BME280;6549;53.128;8.182;2023-04-03T04:05:23;103100.44;;;-0.55;100.00
12969;BME280;6549;53.128;8.182;2023-04-03T04:08:23;103102.63;;;-0.52;100.00
12969;BME280;6549;53.128;8.182;2023-04-03T04:11:24;103103.66;;;-0.58;100.00
12969;BME280;6549;53.128;8.182;2023-04-03T04:14:25;103103.69;;;-0.53;100.00
12969;BME280;6549;53.128;8.182;2023-04-03T04:17:25;103112.94;;;-0.49;100.00
12969;BME280;6549;53.128;8.182;2023-04-03T04:20:25;103113.28;;;-0.40;100.00
12969;BME280;6549;53.128;8.182;2023-04-03T04:23:25;103116.94;;;-0.52;100.00
12969;BME280;6549;53.128;8.182;2023-04-03T04:26:26;103116.06;;;-0.57;100.00
12969;BME280;6549;53.128;8.182;2023-04-03T04:29:26;103114.94;;;-0.61;100.00
12969;BME280;6549;53.128;8.182;2023-04-03T04:32:26;103123.84;;;-0.61;100.00
12969;BME280;6549;53.128;8.182;2023-04-03T04:35:27;103121.59;;;-0.69;100.00
12969;BME280;6549;53.128;8.182;2023-04-03T04:38:27;103138.63;;;-0.68;100.00
12969;BME280;6549;53.128;8.182;2023-04-03T04:41:27;103133.75;;;-0.71;100.00
12969;BME280;6549;53.128;8.182;2023-04-03T04:44:28;103138.81;;;-0.75;100.00
12969;BME280;6549;53.128;8.182;2023-04-03T04:47:29;103140.97;;;-0.77;100.00
12969;BME280;6549;53.128;8.182;2023-04-03T04:50:29;103140.88;;;-0.82;100.00
12969;BME280;6549;53.128;8.182;2023-04-03T04:53:30;103144.09;;;-0.85;100.00
12969;BME280;6549;53.128;8.182;2023-04-03T04:56:31;103140.81;;;-0.87;100.00
12969;BME280;6549;53.128;8.182;2023-04-03T04:59:31;103143.28;;;-0.85;100.00
12969;BME280;6549;53.128;8.182;2023-04-03T05:02:31;103144.66;;;-0.83;100.00
12969;BME280;6549;53.128;8.182;2023-04-03T05:05:32;103134.91;;;-0.84;100.00
12969;BME280;6549;53.128;8.182;2023-04-03T05:08:32;103144.16;;;-0.80;100.00
12969;BME280;6549;53.128;8.182;2023-04-03T05:11:32;103141.94;;;-0.83;100.00
12969;BME280;6549;53.128;8.182;2023-04-03T05:14:33;103151.09;;;-0.84;100.00
12969;BME280;6549;53.128;8.182;2023-04-03T05:17:33;103153.63;;;-0.77;100.00
12969;BME280;6549;53.128;8.182;2023-04-03T05:20:33;103142.16;;;-0.68;100.00
12969;BME280;6549;53.128;8.182;2023-04-03T05:23:34;103158.84;;;-0.49;100.00
12969;BME280;6549;53.128;8.182;2023-04-03T05:26:34;103166.19;;;-0.44;100.00
12969;BME280;6549;53.128;8.182;2023-04-03T05:29:34;103161.34;;;-0.42;100.00
12969;BME280;6549;53.128;8.182;2023-04-03T05:32:35;103157.69;;;-0.31;100.00
12969;BME280;6549;53.128;8.182;2023-04-03T05:35:36;103166.19;;;-0.18;100.00
12969;BME280;6549;53.128;8.182;2023-04-03T05:38:40;103158.59;;;0.06;100.00
12969;BME280;6549;53.128;8.182;2023-04-03T05:41:41;103151.81;;;0.30;100.00
12969;BME280;6549;53.128;8.182;2023-04-03T05:44:41;103173.03;;;1.38;100.00
12969;BME280;6549;53.128;8.182;2023-04-03T05:47:41;103184.09;;;2.59;100.00
12969;BME280;6549;53.128;8.182;2023-04-03T05:50:42;103183.16;;;3.29;100.00
12969;BME280;6549;53.128;8.182;2023-04-03T05:53:43;103187.56;;;4.18;100.00
12969;BME280;6549;53.128;8.182;2023-04-03T05:56:44;103188.44;;;4.47;100.00
12969;BME280;6549;53.128;8.182;2023-04-03T05:59:45;103185.53;;;4.68;100.00
12969;BME280;6549;53.128;8.182;2023-04-03T06:02:46;103193.53;;;4.59;100.00
12969;BME280;6549;53.128;8.182;2023-04-03T06:05:47;103189.63;;;4.36;100.00
12969;BME280;6549;53.128;8.182;2023-04-03T06:08:47;103207.56;;;4.71;100.00
12969;BME280;6549;53.128;8.182;2023-04-03T06:11:47;103200.78;;;4.97;100.00
12969;BME280;6549;53.128;8.182;2023-04-03T06:14:48;103198.75;;;5.32;100.00
12969;BME280;6549;53.128;8.182;2023-04-03T06:17:49;103201.19;;;5.10;100.00
12969;BME280;6549;53.128;8.182;2023-04-03T06:20:49;103208.50;;;5.14;100.00
12969;BME280;6549;53.128;8.182;2023-04-03T06:23:49;103214.09;;;4.41;100.00
12969;BME280;6549;53.128;8.182;2023-04-03T06:26:52;103219.56;;;4.70;100.00
12969;BME280;6549;53.128;8.182;2023-04-03T06:29:53;103219.13;;;4.87;100.00
12969;BME280;6549;53.128;8.182;2023-04-03T06:32:53;103221.72;;;4.73;100.00
12969;BME280;6549;53.128;8.182;2023-04-03T06:35:58;103224.78;;;4.67;100.00
12969;BME280;6549;53.128;8.182;2023-04-03T06:38:58;103224.78;;;4.95;100.00
12969;BME280;6549;53.128;8.182;2023-04-03T06:41:59;103223.63;;;5.30;100.00
12969;BME280;6549;53.128;8.182;2023-04-03T06:45:00;103230.38;;;4.46;100.00
12969;BME280;6549;53.128;8.182;2023-04-03T06:48:00;103231.41;;;4.12;100.00
12969;BME280;6549;53.128;8.182;2023-04-03T06:51:01;103226.88;;;4.41;100.00
12969;BME280;6549;53.128;8.182;2023-04-03T06:54:03;103232.91;;;4.72;100.00
12969;BME280;6549;53.128;8.182;2023-04-03T06:57:04;103240.84;;;4.97;100.00
12969;BME280;6549;53.128;8.182;2023-04-03T07:00:05;103246.59;;;4.95;100.00
12969;BME280;6549;53.128;8.182;2023-04-03T07:03:06;103234.00;;;5.00;100.00
12969;BME280;6549;53.128;8.182;2023-04-03T07:06:11;103244.47;;;5.40;100.00
12969;BME280;6549;53.128;8.182;2023-04-03T07:09:11;103247.03;;;5.55;100.00
12969;BME280;6549;53.128;8.182;2023-04-03T07:12:12;103253.78;;;5.86;100.00
12969;BME280;6549;53.128;8.182;2023-04-03T07:15:12;103250.97;;;5.92;100.00
12969;BME280;6549;53.128;8.182;2023-04-03T07:18:13;103259.31;;;5.76;100.00
12969;BME280;6549;53.128;8.182;2023-04-03T07:21:13;103259.81;;;5.60;100.00
12969;BME280;6549;53.128;8.182;2023-04-03T07:24:14;103259.63;;;5.51;100.00
12969;BME280;6549;53.128;8.182;2023-04-03T07:27:14;103263.56;;;5.64;100.00
12969;BME280;6549;53.128;8.182;2023-04-03T07:30:15;103261.78;;;5.54;100.00
12969;BME280;6549;53.128;8.182;2023-04-03T07:33:16;103268.34;;;6.01;100.00
12969;BME280;6549;53.128;8.182;2023-04-03T07:36:19;103273.13;;;6.09;100.00
12969;BME280;6549;53.128;8.182;2023-04-03T07:39:20;103271.94;;;6.33;100.00
12969;BME280;6549;53.128;8.182;2023-04-03T07:42:20;103273.28;;;6.87;100.00
12969;BME280;6549;53.128;8.182;2023-04-03T07:45:21;103281.16;;;6.75;100.00
12969;BME280;6549;53.128;8.182;2023-04-03T07:48:25;103277.13;;;6.35;100.00
12969;BME280;6549;53.128;8.182;2023-04-03T07:51:25;103277.34;;;6.39;100.00
12969;BME280;6549;53.128;8.182;2023-04-03T07:54:26;103275.56;;;6.48;100.00
12969;BME280;6549;53.128;8.182;2023-04-03T07:57:27;103270.97;;;6.81;100.00
12969;BME280;6549;53.128;8.182;2023-04-03T08:00:27;103270.69;;;6.96;100.00
12969;BME280;6549;53.128;8.182;2023-04-03T08:03:28;103273.56;;;6.35;100.00
12969;BME280;6549;53.128;8.182;2023-04-03T08:06:28;103276.81;;;6.18;100.00
12969;BME280;6549;53.128;8.182;2023-04-03T08:09:34;103281.13;;;6.24;100.00
12969;BME280;6549;53.128;8.182;2023-04-03T08:12:35;103266.09;;;6.03;100.00
12969;BME280;6549;53.128;8.182;2023-04-03T08:15:36;103278.38;;;6.43;100.00
12969;BME280;6549;53.128;8.182;2023-04-03T08:18:37;103266.03;;;6.08;100.00
12969;BME280;6549;53.128;8.182;2023-04-03T08:21:37;103268.22;;;6.81;100.00
12969;BME280;6549;53.128;8.182;2023-04-03T08:24:38;103274.97;;;7.02;100.00
12969;BME280;6549;53.128;8.182;2023-04-03T08:27:38;103267.22;;;7.50;100.00
12969;BME280;6549;53.128;8.182;2023-04-03T08:30:40;103273.97;;;7.11;90.38
12969;BME280;6549;53.128;8.182;2023-04-03T08:33:41;103271.38;;;6.88;90.94
12969;BME280;6549;53.128;8.182;2023-04-03T08:36:41;103267.56;;;7.02;92.64
12969;BME280;6549;53.128;8.182;2023-04-03T08:39:42;103261.47;;;7.51;89.06
12969;BME280;6549;53.128;8.182;2023-04-03T08:42:54;103269.16;;;7.77;85.91
12969;BME280;6549;53.128;8.182;2023-04-03T08:46:01;103261.47;;;7.79;85.10
12969;BME280;6549;53.128;8.182;2023-04-03T08:49:04;103264.97;;;7.79;83.18
12969;BME280;6549;53.128;8.182;2023-04-03T08:52:12;103254.75;;;7.57;74.80
12969;BME280;6549;53.128;8.182;2023-04-03T08:55:28;103266.41;;;7.77;69.14
12969;BME280;6549;53.128;8.182;2023-04-03T08:58:30;103263.06;;;7.80;72.84
12969;BME280;6549;53.128;8.182;2023-04-03T09:01:39;103258.69;;;8.42;71.67
12969;BME280;6549;53.128;8.182;2023-04-03T09:04:40;103260.69;;;8.50;65.24
12969;BME280;6549;53.128;8.182;2023-04-03T09:07:51;103261.50;;;8.50;62.33
12969;BME280;6549;53.128;8.182;2023-04-03T09:11:04;103258.09;;;8.89;64.14
12969;BME280;6549;53.128;8.182;2023-04-03T09:20:48;103258.22;;;9.46;54.86
12969;BME280;6549;53.128;8.182;2023-04-03T09:23:53;103253.28;;;8.73;50.76
12969;BME280;6549;53.128;8.182;2023-04-03T09:27:01;103241.69;;;8.31;49.03
12969;BME280;6549;53.128;8.182;2023-04-03T09:30:04;103248.53;;;8.87;48.95
12969;BME280;6549;53.128;8.182;2023-04-03T09:33:06;103249.31;;;9.10;51.28
12969;BME280;6549;53.128;8.182;2023-04-03T09:36:07;103240.41;;;9.04;49.59
12969;BME280;6549;53.128;8.182;2023-04-03T09:39:19;103239.88;;;9.64;52.24
12969;BME280;6549;53.128;8.182;2023-04-03T09:42:21;103245.81;;;9.57;47.18
12969;BME280;6549;53.128;8.182;2023-04-03T09:45:26;103244.75;;;9.36;47.65
12969;BME280;6549;53.128;8.182;2023-04-03T09:48:27;103237.19;;;9.02;47.96
12969;BME280;6549;53.128;8.182;2023-04-03T09:51:29;103237.41;;;8.83;49.22
12969;BME280;6549;53.128;8.182;2023-04-03T09:54:36;103237.03;;;9.38;48.12
12969;BME280;6549;53.128;8.182;2023-04-03T09:57:38;103231.50;;;8.98;47.84
12969;BME280;6549;53.128;8.182;2023-04-03T10:00:40;103225.97;;;9.21;48.48
12969;BME280;6549;53.128;8.182;2023-04-03T10:03:40;103219.16;;;9.58;46.93
12969;BME280;6549;53.128;8.182;2023-04-03T10:06:47;103223.19;;;10.17;47.03
12969;BME280;6549;53.128;8.182;2023-04-03T10:09:58;103230.09;;;10.14;45.73
12969;BME280;6549;53.128;8.182;2023-04-03T10:13:17;103229.25;;;9.97;46.05
12969;BME280;6549;53.128;8.182;2023-04-03T10:16:25;103232.06;;;10.40;45.86
12969;BME280;6549;53.128;8.182;2023-04-03T10:19:34;103234.81;;;10.48;46.20
12969;BME280;6549;53.128;8.182;2023-04-03T10:22:44;103220.97;;;9.71;47.07
12969;BME280;6549;53.128;8.182;2023-04-03T10:26:02;103228.94;;;9.98;45.24
12969;BME280;6549;53.128;8.182;2023-04-03T10:30:16;103226.25;;;10.24;45.21
12969;BME280;6549;53.128;8.182;2023-04-03T10:32:58;103220.22;;;10.05;44.19
12969;BME280;6549;53.128;8.182;2023-04-03T10:42:50;103213.31;;;9.42;42.25
12969;BME280;6549;53.128;8.182;2023-04-03T10:52:36;103207.47;;;10.60;42.03
12969;BME280;6549;53.128;8.182;2023-04-03T10:55:51;103202.47;;;10.19;41.20
12969;BME280;6549;53.128;8.182;2023-04-03T10:59:18;103211.03;;;10.18;43.09
12969;BME280;6549;53.128;8.182;2023-04-03T11:05:35;103194.06;;;11.14;44.19
12969;BME280;6549;53.128;8.182;2023-04-03T11:08:42;103192.31;;;10.20;41.09
12969;BME280;6549;53.128;8.182;2023-04-03T11:11:44;103187.75;;;9.98;41.71
12969;BME280;6549;53.128;8.182;2023-04-03T11:14:49;103179.19;;;10.08;43.39
12969;BME280;6549;53.128;8.182;2023-04-03T11:17:54;103168.97;;;10.00;45.12
12969;BME280;6549;53.128;8.182;2023-04-03T11:21:04;103164.16;;;10.49;45.62
12969;BME280;6549;53.128;8.182;2023-04-03T11:24:17;103160.09;;;10.55;42.55
12969;BME280;6549;53.128;8.182;2023-04-03T11:27:20;103161.75;;;10.04;43.20
12969;BME280;6549;53.128;8.182;2023-04-03T11:34:38;103156.44;;;10.16;43.66
12969;BME280;6549;53.128;8.182;2023-04-03T11:37:15;103144.91;;;10.31;42.81
12969;BME280;6549;53.128;8.182;2023-04-03T11:43:28;103144.91;;;10.49;42.88
12969;BME280;6549;53.128;8.182;2023-04-03T11:46:54;103136.19;;;10.47;44.86
12969;BME280;6549;53.128;8.182;2023-04-03T11:53:02;103116.59;;;10.95;43.58
12969;BME280;6549;53.128;8.182;2023-04-03T11:59:23;103124.84;;;10.57;41.69
12969;BME280;6549;53.128;8.182;2023-04-03T12:02:37;103128.94;;;9.90;42.18
12969;BME280;6549;53.128;8.182;2023-04-03T12:05:37;103125.84;;;10.44;42.82
12969;BME280;6549;53.128;8.182;2023-04-03T12:11:41;103113.41;;;10.29;40.81
12969;BME280;6549;53.128;8.182;2023-04-03T12:14:41;103110.03;;;9.89;40.11
12969;BME280;6549;53.128;8.182;2023-04-03T12:17:41;103105.75;;;10.52;40.59
12969;BME280;6549;53.128;8.182;2023-04-03T12:27:23;103093.84;;;10.39;40.99
12969;BME280;6549;53.128;8.182;2023-04-03T12:30:26;103091.84;;;10.57;40.80
12969;BME280;6549;53.128;8.182;2023-04-03T12:36:52;103081.72;;;10.78;43.60
12969;BME280;6549;53.128;8.182;2023-04-03T12:40:09;103085.72;;;11.18;42.22
12969;BME280;6549;53.128;8.182;2023-04-03T12:46:59;103071.56;;;11.28;42.50
12969;BME280;6549;53.128;8.182;2023-04-03T12:50:01;103071.44;;;10.66;41.76
12969;BME280;6549;53.128;8.182;2023-04-03T12:53:06;103058.78;;;10.19;41.87
12969;BME280;6549;53.128;8.182;2023-04-03T12:59:23;103054.31;;;10.61;41.71
12969;BME280;6549;53.128;8.182;2023-04-03T13:02:28;103057.19;;;9.92;41.96
12969;BME280;6549;53.128;8.182;2023-04-03T13:05:29;103048.91;;;10.09;42.32
12969;BME280;6549;53.128;8.182;2023-04-03T13:08:31;103057.63;;;10.37;41.55
12969;BME280;6549;53.128;8.182;2023-04-03T13:11:38;103046.56;;;10.54;41.99
12969;BME280;6549;53.128;8.182;2023-04-03T13:14:40;103044.78;;;10.50;42.23
12969;BME280;6549;53.128;8.182;2023-04-03T13:17:42;103048.69;;;10.40;42.32
12969;BME280;6549;53.128;8.182;2023-04-03T13:20:42;103040.06;;;10.59;43.04
12969;BME280;6549;53.128;8.182;2023-04-03T13:23:47;103046.66;;;10.28;41.52
12969;BME280;6549;53.128;8.182;2023-04-03T13:26:51;103032.44;;;10.26;42.82
12969;BME280;6549;53.128;8.182;2023-04-03T13:29:53;103025.56;;;10.50;42.82
12969;BME280;6549;53.128;8.182;2023-04-03T13:32:58;103018.91;;;10.51;42.24
12969;BME280;6549;53.128;8.182;2023-04-03T13:39:21;103026.91;;;10.73;40.52
12969;BME280;6549;53.128;8.182;2023-04-03T13:42:28;103023.59;;;10.88;40.90
12969;BME280;6549;53.128;8.182;2023-04-03T13:45:31;103024.03;;;10.69;40.90
12969;BME280;6549;53.128;8.182;2023-04-03T13:48:39;103033.13;;;10.61;41.87
12969;BME280;6549;53.128;8.182;2023-04-03T13:51:40;103018.38;;;10.66;42.79
12969;BME280;6549;53.128;8.182;2023-04-03T13:54:40;103009.03;;;10.58;43.08
12969;BME280;6549;53.128;8.182;2023-04-03T14:01:15;103024.25;;;10.56;41.94
12969;BME280;6549;53.128;8.182;2023-04-03T14:04:20;103002.50;;;10.33;42.23
12969;BME280;6549;53.128;8.182;2023-04-03T14:07:22;103006.72;;;10.31;43.34
12969;BME280;6549;53.128;8.182;2023-04-03T14:10:22;102997.22;;;10.20;42.22
12969;BME280;6549;53.128;8.182;2023-04-03T14:13:23;102990.22;;;10.40;42.11
12969;BME280;6549;53.128;8.182;2023-04-03T14:16:26;102994.63;;;10.61;42.59
12969;BME280;6549;53.128;8.182;2023-04-03T14:19:35;102995.47;;;10.82;41.92
12969;BME280;6549;53.128;8.182;2023-04-03T14:22:35;102997.97;;;10.67;41.63
12969;BME280;6549;53.128;8.182;2023-04-03T14:25:37;102995.13;;;10.08;43.50
12969;BME280;6549;53.128;8.182;2023-04-03T14:28:37;103001.78;;;9.99;45.22
12969;BME280;6549;53.128;8.182;2023-04-03T14:31:43;103003.91;;;9.76;45.01
12969;BME280;6549;53.128;8.182;2023-04-03T14:34:45;102992.38;;;10.08;44.51
12969;BME280;6549;53.128;8.182;2023-04-03T14:37:46;102995.69;;;9.76;43.63
12969;BME280;6549;53.128;8.182;2023-04-03T14:40:47;102990.16;;;9.93;43.75
12969;BME280;6549;53.128;8.182;2023-04-03T14:43:48;102991.59;;;9.99;44.14
12969;BME280;6549;53.128;8.182;2023-04-03T14:46:49;102990.25;;;10.22;43.99
12969;BME280;6549;53.128;8.182;2023-04-03T14:49:50;102974.44;;;10.11;45.78
12969;BME280;6549;53.128;8.182;2023-04-03T14:52:53;102981.16;;;10.39;46.94
12969;BME280;6549;53.128;8.182;2023-04-03T14:55:54;102979.47;;;10.17;47.70
12969;BME280;6549;53.128;8.182;2023-04-03T14:58:57;102979.66;;;9.95;47.55
12969;BME280;6549;53.128;8.182;2023-04-03T15:01:58;102982.63;;;9.38;46.63
12969;BME280;6549;53.128;8.182;2023-04-03T15:04:59;102985.03;;;8.97;48.39
12969;BME280;6549;53.128;8.182;2023-04-03T15:08:00;102975.59;;;8.64;50.01
12969;BME280;6549;53.128;8.182;2023-04-03T15:11:01;102957.78;;;8.35;52.75
12969;BME280;6549;53.128;8.182;2023-04-03T15:14:01;102963.75;;;8.46;53.99
12969;BME280;6549;53.128;8.182;2023-04-03T15:17:01;102952.09;;;8.80;53.59
12969;BME280;6549;53.128;8.182;2023-04-03T15:20:06;102956.66;;;9.10;53.49
12969;BME280;6549;53.128;8.182;2023-04-03T15:23:12;102954.56;;;9.33;54.04
12969;BME280;6549;53.128;8.182;2023-04-03T15:26:13;102954.22;;;9.26;53.86
12969;BME280;6549;53.128;8.182;2023-04-03T15:29:13;102954.06;;;9.22;53.05
12969;BME280;6549;53.128;8.182;2023-04-03T15:32:13;102949.84;;;8.82;52.78
12969;BME280;6549;53.128;8.182;2023-04-03T15:35:14;102952.31;;;8.35;55.00
12969;BME280;6549;53.128;8.182;2023-04-03T15:38:14;102947.72;;;8.22;56.67
12969;BME280;6549;53.128;8.182;2023-04-03T15:41:15;102940.66;;;8.30;58.11
12969;BME280;6549;53.128;8.182;2023-04-03T15:44:15;102936.00;;;8.30;58.40
12969;BME280;6549;53.128;8.182;2023-04-03T15:47:17;102944.59;;;8.54;58.97
12969;BME280;6549;53.128;8.182;2023-04-03T15:50:18;102946.41;;;8.59;58.45
12969;BME280;6549;53.128;8.182;2023-04-03T15:53:18;102930.91;;;8.54;58.01
12969;BME280;6549;53.128;8.182;2023-04-03T15:56:18;102937.88;;;8.21;59.20
12969;BME280;6549;53.128;8.182;2023-04-03T15:59:19;102934.13;;;8.08;59.14
12969;BME280;6549;53.128;8.182;2023-04-03T16:02:19;102934.88;;;8.31;59.52
12969;BME280;6549;53.128;8.182;2023-04-03T16:05:21;102935.00;;;8.26;61.11
12969;BME280;6549;53.128;8.182;2023-04-03T16:08:22;102930.78;;;8.20;62.20
12969;BME280;6549;53.128;8.182;2023-04-03T16:11:22;102936.13;;;8.25;64.83
12969;BME280;6549;53.128;8.182;2023-04-03T16:14:22;102942.63;;;8.07;64.73
12969;BME280;6549;53.128;8.182;2023-04-03T16:17:23;102937.88;;;7.90;66.12
12969;BME280;6549;53.128;8.182;2023-04-03T16:20:23;102938.84;;;7.86;67.17
12969;BME280;6549;53.128;8.182;2023-04-03T16:23:24;102930.63;;;7.86;67.10
12969;BME280;6549;53.128;8.182;2023-04-03T16:26:26;102928.34;;;7.88;69.38
12969;BME280;6549;53.128;8.182;2023-04-03T16:29:26;102932.19;;;7.78;70.57
12969;BME280;6549;53.128;8.182;2023-04-03T16:32:29;102927.53;;;7.79;71.38
12969;BME280;6549;53.128;8.182;2023-04-03T16:35:30;102925.34;;;7.98;71.96
12969;BME280;6549;53.128;8.182;2023-04-03T16:38:30;102928.59;;;8.00;71.01
12969;BME280;6549;53.128;8.182;2023-04-03T16:41:31;102924.19;;;7.90;73.03
12969;BME280;6549;53.128;8.182;2023-04-03T16:44:32;102920.31;;;7.83;76.57
12969;BME280;6549;53.128;8.182;2023-04-03T16:47:32;102925.75;;;7.74;77.39
12969;BME280;6549;53.128;8.182;2023-04-03T16:50:33;102921.81;;;7.66;80.62
12969;BME280;6549;53.128;8.182;2023-04-03T16:53:33;102919.97;;;7.53;82.61
12969;BME280;6549;53.128;8.182;2023-04-03T16:56:34;102926.81;;;7.42;84.83
12969;BME280;6549;53.128;8.182;2023-04-03T16:59:34;102924.69;;;7.39;87.17
12969;BME280;6549;53.128;8.182;2023-04-03T17:02:34;102918.44;;;7.39;90.06
12969;BME280;6549;53.128;8.182;2023-04-03T17:05:35;102918.72;;;7.37;90.76
12969;BME280;6549;53.128;8.182;2023-04-03T17:08:35;102921.69;;;7.27;92.57